Time;durP1;ratioP1;P1;durP2;ratioP2;P2;SDS_P1;SDS_P2;PMS_P1;PMS_P2;Temp;Humidity;BMP_temperature;BMP_pressure;BME280_temperature;BME280_humidity;BME280_pressure;Samples;Min_cycle;Max_cycle;Signal;HPM_P1;HPM_P2
2022/08/04 00:01:08;;;;;;;15.15;12.13;;;;;;;18.99;100.00;100043.42;1756624;81;21098;-69
2022/08/04 00:03:54;;;;;;;12.05;10.85;;;;;;;19.00;100.00;100050.94;1756103;81;21000;-68
2022/08/04 00:06:46;;;;;;;14.23;10.20;;;;;;;19.07;100.00;100053.06;1755494;81;21098;-68
2022/08/04 00:09:30;;;;;;;17.60;12.70;;;;;;;19.11;100.00;100043.00;1756585;81;21577;-68
2022/08/04 00:11:57;;;;;;;16.87;12.37;;;;;;;19.15;100.00;100052.98;1750279;81;21044;-69
2022/08/04 00:14:23;;;;;;;22.82;13.35;;;;;;;19.18;100.00;100052.73;1737457;81;21078;-68
2022/08/04 00:16:53;;;;;;;15.05;12.53;;;;;;;19.19;100.00;100050.45;1751375;81;21138;-68
2022/08/04 00:19:28;;;;;;;17.57;13.05;;;;;;;19.14;100.00;100045.45;1726429;82;21067;-68
2022/08/04 00:22:01;;;;;;;16.48;13.05;;;;;;;19.18;100.00;100048.73;1726354;82;21204;-69
2022/08/04 00:24:31;;;;;;;16.95;13.03;;;;;;;19.06;100.00;100051.34;1719052;82;21067;-68
2022/08/04 00:26:57;;;;;;;16.10;12.93;;;;;;;19.08;100.00;100046.75;1713555;82;21035;-69
2022/08/04 00:29:26;;;;;;;13.80;12.25;;;;;;;19.10;100.00;100050.65;1713691;83;21063;-69
2022/08/04 00:31:52;;;;;;;14.45;12.28;;;;;;;19.10;100.00;100052.47;1713651;83;21527;-68
2022/08/04 00:34:18;;;;;;;16.45;12.53;;;;;;;19.11;100.00;100042.16;1713454;82;22155;-70
2022/08/04 00:36:45;;;;;;;14.43;11.45;;;;;;;19.12;100.00;100041.17;1713251;82;21690;-67
2022/08/04 00:39:13;;;;;;;13.90;12.13;;;;;;;19.14;100.00;100045.45;1712832;83;21107;-68
2022/08/04 00:42:11;;;;;;;19.75;13.20;;;;;;;19.17;100.00;100045.22;1713096;83;21060;-70
2022/08/04 00:44:55;;;;;;;20.60;13.78;;;;;;;19.22;100.00;100046.22;1713021;82;21813;-68
2022/08/04 00:48:01;;;;;;;17.67;13.10;;;;;;;19.24;100.00;100046.95;1712901;83;21607;-67
2022/08/04 00:51:04;;;;;;;17.80;12.10;;;;;;;19.25;100.00;100049.98;1712947;82;21110;-68
2022/08/04 00:53:39;;;;;;;17.87;13.35;;;;;;;19.24;100.00;100053.63;1712885;83;21063;-68
2022/08/04 00:56:30;;;;;;;20.57;13.30;;;;;;;19.26;100.00;100054.37;1684667;84;21622;-68
2022/08/04 00:59:19;;;;;;;17.07;13.70;;;;;;;19.23;100.00;100058.58;1684547;85;21101;-68
2022/08/04 01:02:00;;;;;;;14.73;12.95;;;;;;;19.20;100.00;100062.83;1684300;84;21154;-69
2022/08/04 01:05:08;;;;;;;13.80;12.03;;;;;;;19.21;100.00;100064.52;1684240;85;21045;-68
2022/08/04 01:07:55;;;;;;;18.65;14.03;;;;;;;19.21;100.00;100061.84;1684257;83;21074;-69
2022/08/04 01:11:06;;;;;;;18.02;13.85;;;;;;;19.21;100.00;100075.19;1683831;84;21140;-70
2022/08/04 01:13:56;;;;;;;15.40;13.35;;;;;;;19.22;100.00;100079.59;1684248;85;21057;-70
2022/08/04 01:16:25;;;;;;;21.25;13.85;;;;;;;19.21;100.00;100085.88;1684360;85;21152;-68
2022/08/04 01:19:01;;;;;;;17.70;13.20;;;;;;;19.17;100.00;100079.08;1684252;84;21182;-68
2022/08/04 01:21:58;;;;;;;18.65;14.90;;;;;;;19.14;100.00;100081.95;1684304;85;21057;-68
2022/08/04 01:24:54;;;;;;;19.37;14.85;;;;;;;19.13;100.00;100085.60;1688997;84;21092;-69
2022/08/04 01:27:56;;;;;;;17.25;13.90;;;;;;;19.10;100.00;100081.83;1696308;84;21089;-68
2022/08/04 01:30:25;;;;;;;19.20;14.33;;;;;;;19.07;100.00;100087.77;1697017;84;21644;-69
2022/08/04 01:33:01;;;;;;;17.10;13.68;;;;;;;19.06;100.00;100086.04;1696789;84;21064;-68
2022/08/04 01:35:49;;;;;;;20.43;15.18;;;;;;;19.07;100.00;100088.22;1696680;84;21506;-67
2022/08/04 01:38:29;;;;;;;17.85;15.03;;;;;;;19.04;100.00;100086.62;1697126;84;21088;-69
2022/08/04 01:41:07;;;;;;;20.65;15.13;;;;;;;19.06;100.00;100079.86;1696770;84;21045;-67
2022/08/04 01:43:41;;;;;;;19.90;15.40;;;;;;;19.06;100.00;100078.03;1696941;84;21548;-68
2022/08/04 01:46:12;;;;;;;28.17;15.85;;;;;;;19.08;100.00;100081.45;1696650;84;21154;-67
2022/08/04 01:48:40;;;;;;;20.95;15.20;;;;;;;19.08;100.00;100079.27;1696711;84;21041;-67
2022/08/04 01:51:08;;;;;;;22.80;16.80;;;;;;;19.08;100.00;100081.45;1696883;84;21065;-69
2022/08/04 01:53:39;;;;;;;19.07;16.02;;;;;;;19.07;100.00;100078.88;1697071;84;21089;-69
2022/08/04 01:56:08;;;;;;;21.30;15.00;;;;;;;19.05;100.00;100077.68;1696606;84;21825;-67
2022/08/04 01:58:36;;;;;;;20.23;16.10;;;;;;;19.07;100.00;100074.42;1696715;84;21057;-70
2022/08/04 02:01:07;;;;;;;20.50;15.63;;;;;;;19.08;100.00;100078.78;1696827;83;21017;-68
2022/08/04 02:03:35;;;;;;;22.30;16.32;;;;;;;19.08;100.00;100077.44;1696394;84;22349;-68
2022/08/04 02:06:23;;;;;;;20.25;16.35;;;;;;;19.07;100.00;100079.75;1696928;84;21092;-68
2022/08/04 02:09:12;;;;;;;28.15;17.62;;;;;;;19.06;100.00;100074.52;1696310;84;22214;-68
2022/08/04 02:11:40;;;;;;;20.45;16.07;;;;;;;19.07;100.00;100077.09;1696773;84;21013;-68
2022/08/04 02:14:39;;;;;;;22.13;17.07;;;;;;;19.08;100.00;100080.11;1696640;84;21049;-69
2022/08/04 02:17:14;;;;;;;24.10;16.73;;;;;;;19.06;100.00;100067.36;1696714;83;21092;-68
2022/08/04 02:19:52;;;;;;;27.27;18.90;;;;;;;19.06;100.00;100074.03;1696493;84;21045;-68
2022/08/04 02:22:19;;;;;;;24.45;18.52;;;;;;;19.04;100.00;100069.28;1696880;84;21592;-68
2022/08/04 02:24:48;;;;;;;22.00;17.25;;;;;;;19.01;100.00;100064.18;1691425;84;21128;-68
2022/08/04 02:27:15;;;;;;;21.30;17.23;;;;;;;19.03;100.00;100067.59;1684314;85;21526;-67
2022/08/04 02:29:53;;;;;;;24.85;17.07;;;;;;;19.02;100.00;100060.53;1684212;85;21057;-67
2022/08/04 02:32:29;;;;;;;22.98;18.85;;;;;;;19.02;100.00;100063.20;1683418;84;21632;-69
2022/08/04 02:35:18;;;;;;;23.05;16.17;;;;;;;19.01;100.00;100062.84;1684302;85;21209;-69
2022/08/04 02:37:50;;;;;;;24.67;15.43;;;;;;;19.01;100.00;100062.84;1684600;85;21610;-69
2022/08/04 02:40:20;;;;;;;25.40;17.57;;;;;;;19.03;100.00;100063.59;1684124;84;21585;-68
2022/08/04 02:42:47;;;;;;;27.70;18.10;;;;;;;19.05;100.00;100068.34;1675086;85;21105;-68
2022/08/04 02:45:13;;;;;;;22.85;17.35;;;;;;;19.04;100.00;100066.61;1684409;84;21054;-70
2022/08/04 02:47:40;;;;;;;23.07;17.20;;;;;;;19.05;100.00;100065.67;1684727;85;21813;-70
2022/08/04 02:50:08;;;;;;;23.40;17.67;;;;;;;19.06;100.00;100062.02;1684713;85;21081;-69
2022/08/04 02:52:35;;;;;;;24.75;17.87;;;;;;;19.10;100.00;100059.14;1698383;84;21005;-71
2022/08/04 02:55:01;;;;;;;24.92;17.60;;;;;;;19.12;100.00;100054.52;1661335;83;21084;-69
2022/08/04 02:57:29;;;;;;;37.35;18.40;;;;;;;19.16;100.00;100054.67;1713195;83;21055;-70
2022/08/04 03:00:08;;;;;;;27.52;18.77;;;;;;;19.16;100.00;100058.67;1712994;82;21516;-67
2022/08/04 03:03:25;;;;;;;25.70;19.02;;;;;;;19.16;100.00;100054.18;1684270;84;21079;-68
2022/08/04 03:06:06;;;;;;;23.22;16.60;;;;;;;19.17;100.00;100055.91;1684382;85;21069;-68
2022/08/04 03:08:58;;;;;;;24.77;17.32;;;;;;;19.19;100.00;100054.46;1697717;84;21089;-68
2022/08/04 03:12:05;;;;;;;26.05;18.17;;;;;;;19.22;100.00;100060.41;1684288;84;21555;-67
2022/08/04 03:15:11;;;;;;;24.92;17.65;;;;;;;19.26;100.00;100063.72;1684102;85;21158;-69
2022/08/04 03:18:08;;;;;;;29.98;19.25;;;;;;;19.27;100.00;100054.73;1684033;83;22074;-69
2022/08/04 03:21:09;;;;;;;26.95;19.15;;;;;;;19.27;100.00;100058.73;1684069;85;21121;-67
2022/08/04 03:24:04;;;;;;;28.02;18.92;;;;;;;19.28;100.00;100060.45;1683986;84;21113;-68
2022/08/04 03:26:51;;;;;;;28.45;18.75;;;;;;;19.32;100.00;100065.06;1683939;85;21137;-67
2022/08/04 03:29:23;;;;;;;27.20;18.98;;;;;;;19.33;100.00;100060.95;1683832;85;21269;-69
2022/08/04 03:32:44;;;;;;;31.12;21.77;;;;;;;19.33;100.00;100055.61;1683856;85;21125;-69
2022/08/04 03:35:47;;;;;;;31.27;21.55;;;;;;;19.34;100.00;100057.30;1684117;84;21061;-69
2022/08/04 03:38:37;;;;;;;30.12;20.17;;;;;;;19.35;100.00;100060.36;1684272;84;21601;-68
2022/08/04 03:41:26;;;;;;;22.93;18.42;;;;;;;19.37;100.00;100059.77;1684148;85;21112;-67
2022/08/04 03:44:32;;;;;;;30.68;21.23;;;;;;;19.38;100.00;100058.78;1683976;85;21309;-69
2022/08/04 03:47:56;;;;;;;32.93;22.70;;;;;;;19.40;100.00;100064.87;1684259;84;21042;-70
2022/08/04 03:53:07;;;;;;;33.53;20.70;;;;;;;19.42;100.00;100062.94;1684181;85;21078;-67
2022/08/04 03:53:28;;;;;;;35.33;22.02;;;;;;;19.43;100.00;100066.45;1686388;84;21070;-68
2022/08/04 03:56:32;;;;;;;28.92;21.15;;;;;;;19.47;100.00;100074.13;1711310;83;21028;-69
2022/08/04 03:59:23;;;;;;;29.07;20.25;;;;;;;19.48;100.00;100075.81;1712889;83;21138;-67
2022/08/04 04:02:04;;;;;;;31.33;20.50;;;;;;;19.50;100.00;100072.55;1712469;82;21130;-68
2022/08/04 04:04:48;;;;;;;30.92;20.57;;;;;;;19.54;100.00;100072.33;1712566;83;21036;-67
2022/08/04 04:08:01;;;;;;;29.40;22.15;;;;;;;19.57;100.00;100073.42;1688771;82;22183;-68
2022/08/04 04:11:06;;;;;;;34.67;21.93;;;;;;;19.63;100.00;100080.98;1712896;82;21643;-69
2022/08/04 04:14:23;;;;;;;26.65;19.82;;;;;;;19.65;100.00;100079.91;1712968;83;21141;-69
2022/08/04 04:17:46;;;;;;;29.35;21.52;;;;;;;19.66;100.00;100080.74;1713127;82;21639;-68
2022/08/04 04:20:48;;;;;;;33.83;20.23;;;;;;;19.68;100.00;100077.48;1713197;82;21028;-69
2022/08/04 04:23:32;;;;;;;27.73;21.55;;;;;;;19.69;100.00;100085.88;1712991;83;21507;-69
2022/08/04 04:26:40;;;;;;;28.45;20.30;;;;;;;19.72;100.00;100089.67;1712791;82;21559;-69
2022/08/04 04:29:30;;;;;;;28.62;20.97;;;;;;;19.76;100.00;100080.92;1712866;83;21249;-69
2022/08/04 04:32:14;;;;;;;27.48;20.27;;;;;;;19.81;100.00;100082.78;1709074;83;21122;-68
2022/08/04 04:35:08;;;;;;;29.77;20.02;;;;;;;19.81;100.00;100086.30;1712976;83;21019;-69
2022/08/04 04:38:18;;;;;;;26.65;20.68;;;;;;;19.84;100.00;100086.55;1712748;83;21055;-68
2022/08/04 04:41:14;;;;;;;30.82;20.17;;;;;;;19.86;100.00;100086.80;1712692;83;21087;-69
2022/08/04 04:44:29;;;;;;;28.17;17.75;;;;;;;19.94;100.00;100092.03;1712900;83;21825;-69
2022/08/04 04:47:33;;;;;;;34.53;20.68;;;;;;;19.99;100.00;100090.73;1713127;82;21099;-70
2022/08/04 04:50:08;;;;;;;29.07;20.12;;;;;;;20.01;100.00;100093.27;1712806;83;21035;-70
2022/08/04 04:52:49;;;;;;;25.72;19.95;;;;;;;20.04;100.00;100092.55;1687771;83;21102;-69
2022/08/04 04:55:25;;;;;;;28.75;19.65;;;;;;;20.05;100.00;100097.41;1713177;82;21080;-68
2022/08/04 04:57:58;;;;;;;27.82;19.52;;;;;;;20.04;100.00;100097.05;1712760;83;21314;-70
2022/08/04 05:00:47;;;;;;;30.37;21.27;;;;;;;20.04;100.00;100098.39;1712710;83;21598;-70
2022/08/04 05:03:36;;;;;;;34.90;22.48;;;;;;;20.06;100.00;100093.75;1713202;82;21328;-68
2022/08/04 05:06:34;;;;;;;29.87;20.92;;;;;;;20.12;100.00;100101.31;1712866;82;22160;-69
2022/08/04 05:09:20;;;;;;;28.57;20.52;;;;;;;20.18;100.00;100095.50;1713376;83;21070;-69
2022/08/04 05:12:04;;;;;;;28.00;19.92;;;;;;;20.23;100.00;100093.30;1712975;83;21419;-69
2022/08/04 05:14:37;;;;;;;38.05;22.62;;;;;;;20.28;100.00;100095.13;1712884;83;22182;-69
2022/08/04 05:17:24;;;;;;;33.28;22.13;;;;;;;20.29;100.00;100095.52;1712992;82;21069;-69
2022/08/04 05:19:56;;;;;;;31.93;22.48;;;;;;;20.25;100.00;100108.75;1712844;83;21121;-69
2022/08/04 05:22:33;;;;;;;31.37;21.70;;;;;;;20.28;100.00;100099.14;1710212;82;20986;-70
2022/08/04 05:25:26;;;;;;;30.95;21.55;;;;;;;20.33;100.00;100102.30;1712833;82;21313;-71
2022/08/04 05:28:10;;;;;;;29.92;22.50;;;;;;;20.33;100.00;100102.80;1712889;82;21014;-72
2022/08/04 05:30:49;;;;;;;28.38;20.02;;;;;;;20.36;100.00;100111.05;1712921;82;21057;-69
2022/08/04 05:33:23;;;;;;;26.48;21.02;;;;;;;20.36;100.00;100111.05;1713359;82;21034;-70
2022/08/04 05:35:52;;;;;;;30.32;21.68;;;;;;;20.39;100.00;100113.52;1712883;82;21038;-69
2022/08/04 05:38:22;;;;;;;36.30;21.33;;;;;;;20.44;100.00;100114.00;1702855;83;21251;-71
2022/08/04 05:40:48;;;;;;;28.02;21.73;;;;;;;20.50;100.00;100113.53;1712877;83;21046;-69
2022/08/04 05:43:15;;;;;;;30.77;21.45;;;;;;;20.57;100.00;100108.09;1712992;83;21038;-68
2022/08/04 05:45:42;;;;;;;30.52;20.52;;;;;;;20.71;100.00;100111.84;1713155;82;21033;-67
2022/08/04 05:48:09;;;;;;;26.45;19.67;;;;;;;20.90;100.00;100110.38;1713078;82;21042;-69
2022/08/04 05:50:35;;;;;;;25.82;18.92;;;;;;;21.06;100.00;100109.98;1700088;82;21197;-71
2022/08/04 05:53:01;;;;;;;31.57;18.75;;;;;;;21.25;100.00;100107.98;1684337;84;21041;-69
2022/08/04 05:55:28;;;;;;;22.77;17.62;;;;;;;21.44;100.00;100114.92;1706521;83;21063;-71
2022/08/04 05:57:56;;;;;;;19.85;16.45;;;;;;;21.64;100.00;100112.39;1704143;83;21030;-70
2022/08/04 06:00:24;;;;;;;27.13;19.12;;;;;;;21.88;100.00;100114.36;1684437;85;21027;-69
2022/08/04 06:02:50;;;;;;;26.10;19.30;;;;;;;22.07;100.00;100116.82;1684361;85;21137;-70
2022/08/04 06:05:17;;;;;;;25.37;18.90;;;;;;;22.22;100.00;100118.20;1684302;85;21574;-70
2022/08/04 06:07:45;;;;;;;22.25;16.77;;;;;;;22.25;100.00;100117.95;1684530;85;21612;-69
2022/08/04 06:10:11;;;;;;;27.32;17.62;;;;;;;22.36;100.00;100119.22;1684301;85;21041;-68
2022/08/04 06:12:53;;;;;;;21.35;18.12;;;;;;;22.46;100.00;100113.91;1684383;85;21024;-69
2022/08/04 06:15:20;;;;;;;23.32;18.77;;;;;;;22.43;100.00;100123.57;1684532;83;21828;-70
2022/08/04 06:17:50;;;;;;;23.70;18.45;;;;;;;22.47;100.00;100118.77;1684276;85;21573;-70
2022/08/04 06:20:17;;;;;;;22.63;19.23;;;;;;;22.47;100.00;100118.77;1684503;85;21645;-69
2022/08/04 06:22:48;;;;;;;23.02;18.65;;;;;;;22.43;100.00;100125.37;1684228;85;21026;-70
2022/08/04 06:25:19;;;;;;;25.48;18.52;;;;;;;22.36;100.00;100124.59;1684747;84;21073;-70
2022/08/04 06:27:47;;;;;;;30.15;18.67;;;;;;;22.28;100.00;100125.73;1696739;84;21846;-70
2022/08/04 06:30:15;;;;;;;20.65;16.23;;;;;;;22.26;100.00;100127.69;1696642;84;21061;-69
2022/08/04 06:32:54;;;;;;;32.03;19.50;;;;;;;22.23;100.00;100122.59;1696632;84;21502;-69
2022/08/04 06:35:16;;;;;;;21.60;17.50;;;;;;;22.20;100.00;100122.81;1696397;84;21557;-70
2022/08/04 06:37:45;;;;;;;24.45;18.15;;;;;;;22.14;100.00;100120.67;1696674;84;21096;-69
2022/08/04 06:40:14;;;;;;;21.90;17.67;;;;;;;22.06;100.00;100121.31;1696782;84;21220;-70
2022/08/04 06:42:42;;;;;;;27.62;19.05;;;;;;;22.00;100.00;100125.37;1696748;84;21181;-69
2022/08/04 06:45:09;;;;;;;26.27;17.77;;;;;;;22.02;100.00;100116.34;1697143;84;21053;-68
2022/08/04 06:47:37;;;;;;;24.18;18.40;;;;;;;21.98;100.00;100114.42;1696915;84;21085;-70
2022/08/04 06:50:04;;;;;;;28.67;18.70;;;;;;;21.95;100.00;100116.88;1697035;84;21064;-71
2022/08/04 06:52:31;;;;;;;25.00;19.17;;;;;;;21.93;100.00;100108.61;1696719;84;21045;-69
2022/08/04 06:54:58;;;;;;;26.62;17.40;;;;;;;21.93;100.00;100116.16;1696739;84;21680;-70
2022/08/04 06:57:27;;;;;;;26.07;18.82;;;;;;;21.97;100.00;100108.69;1696702;84;21060;-70
2022/08/04 06:59:58;;;;;;;28.00;18.35;;;;;;;22.02;100.00;100103.80;1697030;84;21045;-69
2022/08/04 07:02:32;;;;;;;28.20;19.12;;;;;;;22.04;100.00;100109.02;1696574;84;21056;-68
2022/08/04 07:04:58;;;;;;;28.57;18.35;;;;;;;22.11;100.00;100105.70;1696850;84;21818;-70
2022/08/04 07:07:25;;;;;;;26.17;17.32;;;;;;;22.20;100.00;100099.55;1696647;84;21060;-71
2022/08/04 07:09:52;;;;;;;20.68;16.52;;;;;;;22.36;100.00;100112.52;1696797;84;21544;-70
2022/08/04 07:12:23;;;;;;;27.93;18.60;;;;;;;22.53;100.00;100102.14;1696806;84;21609;-72
2022/08/04 07:14:50;;;;;;;23.40;18.00;;;;;;;22.66;100.00;100098.74;1696395;83;21256;-70
2022/08/04 07:17:18;;;;;;;;;;;;;;;22.70;100.00;100097.47;1706758;84;21568;-69
2022/08/04 07:19:46;;;;;;;24.50;17.40;;;;;;;22.72;100.00;100111.61;1696990;84;20188;-70
2022/08/04 07:22:12;;;;;;;26.70;15.70;;;;;;;22.76;100.00;100110.36;1696998;84;21037;-70
2022/08/04 07:24:40;;;;;;;22.27;15.88;;;;;;;22.81;100.00;100117.50;1696790;84;21041;-69
2022/08/04 07:27:07;;;;;;;22.50;16.62;;;;;;;22.87;100.00;100120.62;1676253;84;21124;-71
2022/08/04 07:29:35;;;;;;;25.90;17.32;;;;;;;22.96;100.00;100115.30;1689582;84;21310;-70
2022/08/04 07:32:04;;;;;;;24.32;16.55;;;;;;;23.03;100.00;100112.95;1689331;84;21105;-69
2022/08/04 07:34:31;;;;;;;20.82;16.15;;;;;;;23.04;100.00;100111.95;1689434;84;21034;-69
2022/08/04 07:36:59;;;;;;;21.82;15.58;;;;;;;23.06;100.00;100107.30;1689688;84;21582;-69
2022/08/04 07:39:30;;;;;;;25.32;17.02;;;;;;;23.08;100.00;100109.36;1689428;84;21024;-69
2022/08/04 07:42:00;;;;;;;27.37;16.30;;;;;;;23.11;100.00;100105.05;1689582;84;21254;-71
2022/08/04 07:44:27;;;;;;;21.68;15.20;;;;;;;23.20;100.00;100101.53;1689490;84;21128;-69
2022/08/04 07:46:54;;;;;;;30.02;15.98;;;;;;;23.39;100.00;100109.26;1689616;84;21077;-69
2022/08/04 07:49:20;;;;;;;37.05;15.45;;;;;;;23.57;100.00;100108.91;1689453;84;21096;-69
2022/08/04 07:51:47;;;;;;;19.12;15.03;;;;;;;23.78;100.00;100103.92;1689679;84;21014;-70
2022/08/04 07:54:14;;;;;;;22.30;14.15;;;;;;;23.96;100.00;100111.63;1696900;83;22181;-70
2022/08/04 07:56:41;;;;;;;18.87;14.03;;;;;;;24.05;100.00;100110.76;1718605;83;21527;-71
2022/08/04 07:59:07;;;;;;;20.10;13.45;;;;;;;24.14;100.00;100113.09;1718764;83;21376;-69
2022/08/04 08:01:35;;;;;;;25.43;13.80;;;;;;;24.16;100.00;100115.14;1702064;83;21075;-70
2022/08/04 08:04:05;;;;;;;16.45;13.00;;;;;;;24.12;99.64;100112.88;1718794;83;21035;-69
2022/08/04 08:06:33;;;;;;;25.57;13.80;;;;;;;24.29;99.58;100109.42;1718403;83;21214;-70
2022/08/04 08:09:02;;;;;;;26.55;12.80;;;;;;;24.66;98.62;100108.63;1679250;83;21039;-71
2022/08/04 08:11:29;;;;;;;37.67;13.13;;;;;;;25.04;95.82;100104.05;1701848;83;21045;-69
2022/08/04 08:13:55;;;;;;;28.73;12.10;;;;;;;25.43;93.10;100106.52;1656646;83;21031;-70
2022/08/04 08:16:22;;;;;;;19.67;10.80;;;;;;;25.66;89.58;100100.17;1718519;82;21102;-72
2022/08/04 08:18:49;;;;;;;21.45;11.50;;;;;;;25.96;88.15;100107.02;1693178;83;21654;-70
2022/08/04 08:21:21;;;;;;;22.87;11.28;;;;;;;26.21;87.07;100104.00;1689718;84;21060;-70
2022/08/04 08:23:49;;;;;;;24.92;12.47;;;;;;;26.48;85.55;100109.73;1689539;84;21085;-69
2022/08/04 08:26:16;;;;;;;20.88;11.28;;;;;;;26.70;83.72;100114.27;1688649;84;21057;-70
2022/08/04 08:28:43;;;;;;;17.73;11.65;;;;;;;26.76;81.84;100114.98;1684677;85;21010;-71
2022/08/04 08:31:10;;;;;;;24.45;11.53;;;;;;;26.76;79.91;100113.62;1684386;85;21239;-69
2022/08/04 08:33:38;;;;;;;18.70;10.82;;;;;;;26.94;80.79;100111.67;1684363;84;21069;-71
2022/08/04 08:36:22;;;;;;;36.55;12.50;;;;;;;27.09;80.59;100102.93;1684733;85;21022;-70
2022/08/04 08:39:06;;;;;;;20.15;11.45;;;;;;;27.48;80.15;100102.38;1684518;85;22016;-69
2022/08/04 08:42:05;;;;;;;23.80;10.43;;;;;;;27.96;77.54;100099.38;1684949;85;21116;-70
2022/08/04 08:44:45;;;;;;;21.15;11.40;;;;;;;28.19;75.65;100099.00;1673667;84;22232;-72
2022/08/04 08:47:49;;;;;;;11.50;9.55;;;;;;;28.47;73.82;100098.63;1684593;85;21077;-70
2022/08/04 08:50:46;;;;;;;13.45;8.58;;;;;;;28.72;72.03;100095.84;1651030;86;21608;-68
2022/08/04 08:53:54;;;;;;;13.45;9.43;;;;;;;29.01;71.78;100087.92;1684454;85;21129;-73
2022/08/04 08:56:34;;;;;;;9.83;8.80;;;;;;;29.24;69.13;100085.28;1684196;85;21604;-69
2022/08/04 08:59:38;;;;;;;13.62;9.00;;;;;;;29.24;67.05;100078.98;1684869;84;21192;-69
2022/08/04 09:02:36;;;;;;;12.30;8.95;;;;;;;29.22;67.35;100081.06;1684298;84;21565;-70
2022/08/04 09:05:40;;;;;;;15.28;9.33;;;;;;;29.40;67.59;100078.91;1651171;86;21064;-70
2022/08/04 09:08:35;;;;;;;15.63;8.60;;;;;;;29.76;68.00;100074.23;1650893;86;21093;-70
2022/08/04 09:11:15;;;;;;;11.50;9.13;;;;;;;29.95;65.85;100081.52;1650196;86;21085;-69
2022/08/04 09:13:59;;;;;;;35.52;10.48;;;;;;;29.92;65.90;100079.19;1684579;85;22322;-68
2022/08/04 09:16:45;;;;;;;15.05;8.88;;;;;;;29.89;65.31;100077.69;1684248;83;21058;-70
2022/08/04 09:19:44;;;;;;;9.50;8.50;;;;;;;29.81;65.02;100084.02;1684267;84;21110;-70
2022/08/04 09:22:19;;;;;;;11.35;8.38;;;;;;;29.66;65.12;100081.23;1650709;86;21092;-69
2022/08/04 09:25:00;;;;;;;10.63;8.45;;;;;;;29.72;64.74;100077.48;1684449;84;21606;-70
2022/08/04 09:27:38;;;;;;;;;;;;;;;29.65;65.40;100086.84;1639171;86;22008;-70
2022/08/04 09:30:09;;;;;;;14.55;8.28;;;;;;;29.60;65.27;100086.02;1645823;87;20182;-71
2022/08/04 09:32:58;;;;;;;13.18;8.35;;;;;;;29.58;64.83;100081.81;1645965;87;21062;-70
2022/08/04 09:36:00;;;;;;;10.58;7.75;;;;;;;29.90;64.10;100078.84;1646216;86;22204;-69
2022/08/04 09:38:48;;;;;;;15.78;8.28;;;;;;;30.20;62.94;100074.82;1641941;87;21123;-70
2022/08/04 09:41:51;;;;;;;10.23;8.10;;;;;;;30.07;64.02;100078.69;1646180;86;21141;-70
2022/08/04 09:44:29;;;;;;;9.85;8.05;;;;;;;29.87;62.34;100077.86;1646083;87;21077;-70
2022/08/04 09:47:05;;;;;;;12.07;8.08;;;;;;;29.92;61.93;100074.59;1641110;87;22196;-70
2022/08/04 09:49:59;;;;;;;16.20;8.20;;;;;;;30.20;61.61;100073.46;1646116;87;21058;-68
2022/08/04 09:52:34;;;;;;;12.40;8.28;;;;;;;30.36;60.80;100078.44;1646092;86;21065;-70
2022/08/04 09:55:47;;;;;;;24.00;8.63;;;;;;;30.34;60.81;100077.77;1661111;85;21248;-70
2022/08/04 09:58:44;;;;;;;20.20;8.63;;;;;;;30.31;60.07;100078.47;1673747;85;21048;-71
2022/08/04 10:01:18;;;;;;;9.83;8.40;;;;;;;30.06;61.06;100076.48;1673452;85;21546;-72
2022/08/04 10:03:52;;;;;;;26.33;10.08;;;;;;;29.79;61.61;100077.92;1673858;85;21057;-70
2022/08/04 10:06:59;;;;;;;11.35;8.03;;;;;;;29.65;61.70;100082.25;1673409;85;21047;-71
2022/08/04 10:10:15;;;;;;;18.60;8.80;;;;;;;29.43;57.67;100079.89;1673625;85;22049;-70
2022/08/04 10:13:17;;;;;;;24.50;8.85;;;;;;;29.34;58.85;100076.91;1673720;85;21025;-70
2022/08/04 10:15:52;;;;;;;16.23;8.13;;;;;;;29.46;59.32;100074.09;1673525;84;21061;-71
2022/08/04 10:18:43;;;;;;;20.55;9.60;;;;;;;29.79;58.49;100072.50;1673726;85;21119;-70
2022/08/04 10:21:25;;;;;;;18.90;8.30;;;;;;;30.09;57.36;100075.27;1673261;85;21060;-70
2022/08/04 10:24:15;;;;;;;15.05;7.85;;;;;;;30.10;56.09;100066.11;1673173;85;21526;-70
2022/08/04 10:26:53;;;;;;;11.18;7.85;;;;;;;30.08;55.01;100060.86;1672427;85;21065;-71
2022/08/04 10:29:44;;;;;;;17.75;8.50;;;;;;;29.85;54.66;100065.50;1678317;85;21085;-70
2022/08/04 10:32:28;;;;;;;;;;;;;;;29.73;56.57;100066.98;1715303;83;21039;-69
2022/08/04 10:35:18;;;;;;;14.10;8.05;;;;;;;29.82;57.23;100064.00;1713048;83;20168;-70
2022/08/04 10:38:12;;;;;;;10.05;8.18;;;;;;;30.04;56.44;100054.63;1712811;83;21163;-71
2022/08/04 10:40:46;;;;;;;11.28;7.78;;;;;;;30.43;55.51;100058.47;1713143;83;21059;-73
2022/08/04 10:43:41;;;;;;;9.75;7.53;;;;;;;30.60;54.20;100050.11;1712828;82;21091;-72
2022/08/04 10:46:13;;;;;;;12.63;7.30;;;;;;;30.41;54.50;100060.52;1712820;82;21043;-70
2022/08/04 10:48:57;;;;;;;9.73;7.42;;;;;;;30.41;54.50;100060.52;1713023;83;21043;-69
2022/08/04 10:51:35;;;;;;;14.78;8.05;;;;;;;30.11;55.09;100061.00;1712818;83;21914;-70
2022/08/04 10:54:12;;;;;;;13.00;8.08;;;;;;;29.92;56.73;100055.59;1713005;83;21126;-71
2022/08/04 10:57:06;;;;;;;7.65;6.67;;;;;;;30.03;56.76;100054.31;1713001;83;21546;-69
2022/08/04 11:00:11;;;;;;;12.25;7.28;;;;;;;30.38;56.36;100051.92;1702725;83;21093;-71
2022/08/04 11:03:19;;;;;;;11.85;7.35;;;;;;;30.85;55.37;100045.23;1712913;83;21065;-71
2022/08/04 11:05:53;;;;;;;9.80;7.83;;;;;;;31.88;51.35;100030.35;1712808;83;21140;-70
2022/08/04 11:08:26;;;;;;;13.38;7.03;;;;;;;31.88;51.35;100030.35;1712946;83;21085;-70
2022/08/04 11:11:12;;;;;;;13.65;6.97;;;;;;;32.19;50.31;100031.87;1713073;82;22192;-71
2022/08/04 11:14:02;;;;;;;13.40;7.58;;;;;;;32.17;50.42;100025.78;1713621;83;21038;-71
2022/08/04 11:16:55;;;;;;;15.65;7.35;;;;;;;32.10;50.46;100030.34;1713126;83;21550;-70
2022/08/04 11:19:38;;;;;;;8.20;6.95;;;;;;;31.81;49.85;100036.27;1713001;82;21150;-70
2022/08/04 11:22:22;;;;;;;9.98;7.08;;;;;;;31.36;50.42;100039.74;1708877;82;21542;-71
2022/08/04 11:25:04;;;;;;;10.10;7.28;;;;;;;31.03;51.98;100036.13;1713055;82;21072;-74
2022/08/04 11:27:49;;;;;;;11.08;7.22;;;;;;;30.67;53.18;100035.59;1712858;82;21491;-70
2022/08/04 11:30:16;;;;;;;10.55;7.25;;;;;;;30.20;54.33;100028.65;1713038;83;21526;-71
2022/08/04 11:32:56;;;;;;;11.75;7.85;;;;;;;30.09;55.11;100024.55;1713018;83;21908;-69
2022/08/04 11:35:40;;;;;;;11.40;7.05;;;;;;;30.54;56.00;100019.12;1712615;82;21108;-72
2022/08/04 11:38:29;;;;;;;8.63;6.87;;;;;;;30.54;56.00;100019.12;1707995;82;21038;-71
2022/08/04 11:42:49;;;;;;;9.78;7.12;;;;;;;31.10;54.72;100004.94;1798409;79;23448;-70
2022/08/04 11:45:21;;;;;;;11.88;6.87;;;;;;;31.39;52.81;99997.16;1770590;79;21135;-70
2022/08/04 11:47:56;;;;;;;9.30;7.10;;;;;;;31.70;51.95;100001.42;1790936;80;21577;-72
2022/08/04 11:50:43;;;;;;;11.22;7.78;;;;;;;32.09;51.79;100004.13;1790115;79;21043;-70
2022/08/04 11:53:18;;;;;;;14.68;7.40;;;;;;;32.26;49.17;100000.05;1771021;79;21549;-70
2022/08/04 11:55:44;;;;;;;13.03;6.70;;;;;;;32.14;49.73;100005.23;1759457;79;21150;-70
2022/08/04 11:58:11;;;;;;;11.25;7.22;;;;;;;32.08;49.94;100001.10;1756898;81;21623;-71
2022/08/04 12:00:42;;;;;;;13.98;7.50;;;;;;;31.85;50.06;100000.81;1760792;81;22013;-71
2022/08/04 12:03:35;;;;;;;9.18;6.65;;;;;;;31.64;50.99;99998.15;1754381;81;21604;-70
2022/08/04 12:06:25;;;;;;;11.25;6.90;;;;;;;31.38;51.82;100002.27;1759139;81;21076;-71
2022/08/04 12:09:01;;;;;;;19.40;7.22;;;;;;;31.00;53.29;100002.54;1759505;81;21040;-70